createdAt,value
2023-01-15T00:04:41.359Z,0
2023-01-15T00:11:04.528Z,0
2023-01-15T00:17:24.349Z,0
2023-01-15T00:23:47.448Z,0
2023-01-15T00:30:07.321Z,0
2023-01-15T00:36:30.410Z,0
2023-01-15T00:42:53.916Z,0
2023-01-15T00:49:13.370Z,0
2023-01-15T00:55:33.401Z,0
2023-01-15T01:01:56.510Z,0
2023-01-15T01:08:16.396Z,0
2023-01-15T01:14:39.428Z,0
2023-01-15T01:20:59.389Z,0
2023-01-15T01:27:22.421Z,0
2023-01-15T01:33:42.419Z,0
2023-01-15T01:40:05.404Z,0
2023-01-15T01:46:25.459Z,0
2023-01-15T01:52:48.329Z,0
2023-01-15T01:59:08.410Z,0
2023-01-15T02:05:31.417Z,0
2023-01-15T02:11:51.507Z,0
2023-01-15T02:18:14.408Z,0
2023-01-15T02:24:34.419Z,0
2023-01-15T02:30:57.531Z,0
2023-01-15T02:37:17.410Z,0
2023-01-15T02:43:40.475Z,0
2023-01-15T02:50:00.334Z,0
2023-01-15T02:56:23.352Z,0
2023-01-15T03:02:43.509Z,0
2023-01-15T03:09:06.465Z,0
2023-01-15T03:15:26.429Z,0
2023-01-15T03:21:49.512Z,0
2023-01-15T03:28:09.347Z,0
2023-01-15T03:34:32.404Z,0
2023-01-15T03:40:52.339Z,0
2023-01-15T03:47:15.386Z,0
2023-01-15T03:53:35.361Z,0
2023-01-15T03:59:58.360Z,0
2023-01-15T04:06:18.329Z,0
2023-01-15T04:30:17.281Z,0
2023-01-15T04:36:40.378Z,0
2023-01-15T04:43:00.433Z,0
2023-01-15T04:49:23.348Z,0
2023-01-15T04:55:43.353Z,0
2023-01-15T05:02:07.106Z,0
2023-01-15T05:08:26.449Z,0
2023-01-15T05:14:49.446Z,0
2023-01-15T05:21:09.330Z,0
2023-01-15T05:27:32.384Z,0
2023-01-15T05:33:52.371Z,0
2023-01-15T05:40:15.418Z,0
2023-01-15T05:46:35.476Z,0
2023-01-15T05:52:58.390Z,0
2023-01-15T05:59:18.414Z,0
2023-01-15T06:05:41.343Z,0
2023-01-15T06:12:01.853Z,0
2023-01-15T06:18:24.365Z,0
2023-01-15T06:24:44.384Z,0
2023-01-15T06:31:07.535Z,0
2023-01-15T06:37:27.451Z,0
2023-01-15T06:43:50.465Z,0
2023-01-15T06:50:10.550Z,0
2023-01-15T06:56:33.452Z,0
2023-01-15T07:02:53.429Z,0
2023-01-15T07:09:16.442Z,2
2023-01-15T07:15:36.427Z,7
2023-01-15T07:21:59.464Z,15
2023-01-15T07:28:19.422Z,21
2023-01-15T07:34:42.371Z,36
2023-01-15T07:41:02.362Z,47
2023-01-15T07:47:25.466Z,62
2023-01-15T07:53:45.568Z,76
2023-01-15T08:00:08.400Z,106
2023-01-15T08:06:28.472Z,151
2023-01-15T08:12:51.531Z,223
2023-01-15T08:19:11.383Z,150
2023-01-15T08:25:34.439Z,84
2023-01-15T08:31:54.484Z,387
2023-01-15T08:38:17.461Z,765
2023-01-15T08:44:37.439Z,263
2023-01-15T08:51:00.460Z,168
2023-01-15T08:57:20.378Z,406
2023-01-15T09:03:43.458Z,648
2023-01-15T09:10:03.384Z,682
2023-01-15T09:16:26.585Z,761
2023-01-15T09:41:31.325Z,1037
2023-01-15T09:47:51.342Z,618
2023-01-15T09:54:14.478Z,673
2023-01-15T10:00:34.371Z,1328
2023-01-15T10:06:57.363Z,1803
2023-01-15T10:13:17.497Z,967
2023-01-15T10:19:44.697Z,905
2023-01-15T10:26:00.323Z,1172
2023-01-15T10:32:23.359Z,1158
2023-01-15T10:38:43.398Z,2012
2023-01-15T10:45:06.375Z,2753
2023-01-15T10:51:26.346Z,2826
2023-01-15T10:57:52.542Z,2932
2023-01-15T11:04:09.391Z,3089
2023-01-15T11:10:32.363Z,3399
2023-01-15T11:16:52.418Z,3597
2023-01-15T11:23:15.400Z,4020
2023-01-15T11:29:35.409Z,4240
2023-01-15T11:35:58.592Z,3400
2023-01-15T11:42:18.333Z,2242
2023-01-15T11:48:41.400Z,2325
2023-01-15T11:55:01.352Z,2474
2023-01-15T12:01:24.366Z,2675
2023-01-15T12:07:44.443Z,1688
2023-01-15T12:14:07.364Z,1314
2023-01-15T12:20:27.589Z,1561
2023-01-15T12:26:50.399Z,1502
2023-01-15T12:33:10.626Z,1551
2023-01-15T12:39:33.352Z,2240
2023-01-15T12:45:53.328Z,2482
2023-01-15T12:52:16.448Z,1763
2023-01-15T12:58:36.334Z,1288
2023-01-15T13:04:59.384Z,1931
2023-01-15T13:11:19.460Z,2135
2023-01-15T13:17:42.360Z,1107
2023-01-15T13:24:02.436Z,1262
2023-01-15T13:30:25.352Z,935
2023-01-15T13:36:45.730Z,783
2023-01-15T13:43:08.437Z,1200
2023-01-15T13:49:28.326Z,967
2023-01-15T13:55:51.462Z,1296
2023-01-15T14:02:11.461Z,1723
2023-01-15T14:08:34.382Z,1513
2023-01-15T14:14:54.405Z,1198
2023-01-15T14:21:17.423Z,740
2023-01-15T14:27:37.449Z,516
2023-01-15T14:34:00.352Z,296
2023-01-15T14:58:06.864Z,178
2023-01-15T15:04:26.310Z,143
2023-01-15T15:10:49.340Z,137
2023-01-15T15:17:09.353Z,113
2023-01-15T15:23:32.348Z,110
2023-01-15T15:29:52.493Z,113
2023-01-15T15:36:15.421Z,79
2023-01-15T15:42:35.443Z,60
2023-01-15T15:48:58.435Z,35
2023-01-15T15:55:18.344Z,24
2023-01-15T16:01:41.440Z,14
2023-01-15T16:08:01.580Z,8
2023-01-15T16:14:24.692Z,4
2023-01-15T16:20:44.388Z,1
2023-01-15T16:27:07.450Z,0
2023-01-15T16:33:27.493Z,0
2023-01-15T16:39:50.353Z,0
2023-01-15T16:46:10.653Z,0
2023-01-15T16:52:33.370Z,0
2023-01-15T16:58:53.377Z,0
2023-01-15T17:05:16.486Z,0
2023-01-15T17:11:36.391Z,0
2023-01-15T17:17:59.386Z,0
2023-01-15T17:24:19.373Z,0
2023-01-15T17:30:42.399Z,0
2023-01-15T17:37:02.464Z,0
2023-01-15T17:43:25.364Z,0
2023-01-15T17:49:45.403Z,0
2023-01-15T17:56:08.408Z,0
2023-01-15T18:02:28.451Z,0
2023-01-15T18:08:51.419Z,0
2023-01-15T18:15:11.341Z,0
2023-01-15T18:21:34.437Z,0
2023-01-15T18:27:54.335Z,0
2023-01-15T18:34:17.406Z,0
2023-01-15T18:40:37.472Z,0
2023-01-15T18:47:00.415Z,0
2023-01-15T18:53:20.448Z,0
2023-01-15T18:59:43.353Z,0
2023-01-15T19:06:03.459Z,0
2023-01-15T19:12:26.478Z,0
2023-01-15T19:18:46.378Z,0
2023-01-15T19:25:09.398Z,0
2023-01-15T19:31:29.545Z,0
2023-01-15T19:37:52.424Z,0
2023-01-15T19:44:12.398Z,0
2023-01-15T19:59:47.240Z,0
2023-01-15T20:06:07.342Z,0
2023-01-15T20:12:30.395Z,0
2023-01-15T20:18:50.397Z,0
2023-01-15T20:25:13.355Z,0
2023-01-15T20:31:33.455Z,0
2023-01-15T20:37:56.374Z,0
2023-01-15T20:44:16.376Z,0
2023-01-15T20:50:39.683Z,0
2023-01-15T20:56:59.425Z,0
2023-01-15T21:03:22.421Z,0
2023-01-15T21:09:42.309Z,0
2023-01-15T21:16:05.356Z,0
2023-01-15T21:22:25.444Z,0
2023-01-15T21:28:48.338Z,0
2023-01-15T21:35:08.382Z,0
2023-01-15T21:41:31.381Z,0
2023-01-15T21:47:51.341Z,0
2023-01-15T21:54:14.453Z,0
2023-01-15T22:00:34.368Z,0
2023-01-15T22:06:57.405Z,0
2023-01-15T22:13:17.339Z,0
2023-01-15T22:19:40.392Z,0
2023-01-15T22:26:00.364Z,0
2023-01-15T22:32:23.327Z,0
2023-01-15T22:38:43.471Z,0
2023-01-15T22:45:06.347Z,0
2023-01-15T22:51:26.447Z,0
2023-01-15T22:57:49.460Z,0
2023-01-15T23:20:46.367Z,0
2023-01-15T23:27:06.312Z,0
2023-01-15T23:33:29.318Z,0
2023-01-15T23:39:49.393Z,0
2023-01-15T23:46:12.711Z,0
2023-01-15T23:52:32.560Z,0
2023-01-15T23:58:55.413Z,0
